sensor_id;sensor_type;location;lat;lon;timestamp;P1;durP1;ratioP1;P2;durP2;ratioP2
67140;SDS011;54058;52.010;5.546;2022-09-27T00:02:14;4.82;;;0.80;;
67140;SDS011;54058;52.010;5.546;2022-09-27T00:04:40;4.88;;;0.65;;
67140;SDS011;54058;52.010;5.546;2022-09-27T00:07:05;6.93;;;1.45;;
67140;SDS011;54058;52.010;5.546;2022-09-27T00:09:31;3.10;;;0.68;;
67140;SDS011;54058;52.010;5.546;2022-09-27T00:11:57;3.78;;;0.65;;
67140;SDS011;54058;52.010;5.546;2022-09-27T00:14:22;5.30;;;0.70;;
67140;SDS011;54058;52.010;5.546;2022-09-27T00:16:48;4.82;;;0.63;;
67140;SDS011;54058;52.010;5.546;2022-09-27T00:19:15;2.17;;;0.70;;
67140;SDS011;54058;52.010;5.546;2022-09-27T00:21:42;8.55;;;0.82;;
67140;SDS011;54058;52.010;5.546;2022-09-27T00:24:12;4.68;;;0.63;;
67140;SDS011;54058;52.010;5.546;2022-09-27T00:26:40;7.15;;;1.15;;
67140;SDS011;54058;52.010;5.546;2022-09-27T00:29:06;3.80;;;0.68;;
67140;SDS011;54058;52.010;5.546;2022-09-27T00:31:32;5.13;;;0.70;;
67140;SDS011;54058;52.010;5.546;2022-09-27T00:33:59;3.65;;;0.80;;
67140;SDS011;54058;52.010;5.546;2022-09-27T00:36:26;3.50;;;0.88;;
67140;SDS011;54058;52.010;5.546;2022-09-27T00:38:53;4.53;;;0.63;;
67140;SDS011;54058;52.010;5.546;2022-09-27T00:41:23;3.97;;;0.60;;
67140;SDS011;54058;52.010;5.546;2022-09-27T00:44:01;2.38;;;0.52;;
67140;SDS011;54058;52.010;5.546;2022-09-27T00:51:59;2.03;;;0.40;;
67140;SDS011;54058;52.010;5.546;2022-09-27T00:54:27;8.82;;;0.70;;
67140;SDS011;54058;52.010;5.546;2022-09-27T00:56:55;2.35;;;0.68;;
67140;SDS011;54058;52.010;5.546;2022-09-27T00:59:29;5.30;;;0.73;;
67140;SDS011;54058;52.010;5.546;2022-09-27T01:01:56;5.10;;;0.50;;
67140;SDS011;54058;52.010;5.546;2022-09-27T01:04:23;3.25;;;0.50;;
67140;SDS011;54058;52.010;5.546;2022-09-27T01:06:53;3.83;;;0.60;;
67140;SDS011;54058;52.010;5.546;2022-09-27T01:09:19;6.47;;;0.82;;
67140;SDS011;54058;52.010;5.546;2022-09-27T01:17:06;3.92;;;0.75;;
67140;SDS011;54058;52.010;5.546;2022-09-27T01:22:54;4.78;;;0.45;;
67140;SDS011;54058;52.010;5.546;2022-09-27T01:28:08;2.20;;;0.60;;
67140;SDS011;54058;52.010;5.546;2022-09-27T01:33:23;6.90;;;0.50;;
67140;SDS011;54058;52.010;5.546;2022-09-27T01:43:33;0.93;;;0.45;;
67140;SDS011;54058;52.010;5.546;2022-09-27T01:46:20;2.60;;;0.52;;
67140;SDS011;54058;52.010;5.546;2022-09-27T01:49:28;3.63;;;0.52;;
67140;SDS011;54058;52.010;5.546;2022-09-27T01:52:04;6.18;;;0.65;;
67140;SDS011;54058;52.010;5.546;2022-09-27T01:54:35;2.35;;;0.40;;
67140;SDS011;54058;52.010;5.546;2022-09-27T01:57:04;4.32;;;0.60;;
67140;SDS011;54058;52.010;5.546;2022-09-27T01:59:34;7.28;;;1.67;;
67140;SDS011;54058;52.010;5.546;2022-09-27T02:02:07;5.95;;;0.70;;
67140;SDS011;54058;52.010;5.546;2022-09-27T02:04:34;4.20;;;0.60;;
67140;SDS011;54058;52.010;5.546;2022-09-27T02:07:20;5.68;;;0.60;;
67140;SDS011;54058;52.010;5.546;2022-09-27T02:09:52;1.52;;;0.47;;
67140;SDS011;54058;52.010;5.546;2022-09-27T02:12:26;6.30;;;0.80;;
67140;SDS011;54058;52.010;5.546;2022-09-27T02:15:05;10.02;;;0.70;;
67140;SDS011;54058;52.010;5.546;2022-09-27T02:17:43;2.92;;;0.70;;
67140;SDS011;54058;52.010;5.546;2022-09-27T02:20:32;3.72;;;0.68;;
67140;SDS011;54058;52.010;5.546;2022-09-27T02:30:57;4.40;;;1.27;;
67140;SDS011;54058;52.010;5.546;2022-09-27T02:33:25;1.98;;;0.40;;
67140;SDS011;54058;52.010;5.546;2022-09-27T02:36:00;3.92;;;0.90;;
67140;SDS011;54058;52.010;5.546;2022-09-27T02:38:25;2.78;;;0.63;;
67140;SDS011;54058;52.010;5.546;2022-09-27T02:40:51;4.22;;;0.60;;
67140;SDS011;54058;52.010;5.546;2022-09-27T02:43:18;2.05;;;0.80;;
67140;SDS011;54058;52.010;5.546;2022-09-27T02:51:28;5.78;;;0.63;;
67140;SDS011;54058;52.010;5.546;2022-09-27T02:54:18;2.55;;;0.47;;
67140;SDS011;54058;52.010;5.546;2022-09-27T03:00:04;4.10;;;0.50;;
67140;SDS011;54058;52.010;5.546;2022-09-27T03:02:40;4.22;;;0.82;;
67140;SDS011;54058;52.010;5.546;2022-09-27T03:05:10;2.72;;;0.82;;
67140;SDS011;54058;52.010;5.546;2022-09-27T03:07:41;3.60;;;0.70;;
67140;SDS011;54058;52.010;5.546;2022-09-27T03:10:07;4.38;;;0.77;;
67140;SDS011;54058;52.010;5.546;2022-09-27T03:12:41;4.10;;;0.68;;
67140;SDS011;54058;52.010;5.546;2022-09-27T03:15:08;2.72;;;0.80;;
67140;SDS011;54058;52.010;5.546;2022-09-27T03:17:34;1.10;;;0.47;;
67140;SDS011;54058;52.010;5.546;2022-09-27T03:20:00;4.60;;;0.98;;
67140;SDS011;54058;52.010;5.546;2022-09-27T03:22:26;1.08;;;0.45;;
67140;SDS011;54058;52.010;5.546;2022-09-27T03:24:51;6.90;;;0.90;;
67140;SDS011;54058;52.010;5.546;2022-09-27T03:27:17;3.08;;;0.70;;
67140;SDS011;54058;52.010;5.546;2022-09-27T03:29:42;3.83;;;0.80;;
67140;SDS011;54058;52.010;5.546;2022-09-27T03:32:08;4.35;;;0.55;;
67140;SDS011;54058;52.010;5.546;2022-09-27T03:34:34;6.18;;;0.88;;
67140;SDS011;54058;52.010;5.546;2022-09-27T03:37:00;1.88;;;0.50;;
67140;SDS011;54058;52.010;5.546;2022-09-27T03:39:26;2.15;;;0.50;;
67140;SDS011;54058;52.010;5.546;2022-09-27T03:41:52;4.53;;;0.60;;
67140;SDS011;54058;52.010;5.546;2022-09-27T03:44:18;7.53;;;0.80;;
67140;SDS011;54058;52.010;5.546;2022-09-27T03:46:44;5.10;;;0.68;;
67140;SDS011;54058;52.010;5.546;2022-09-27T03:49:09;2.97;;;0.88;;
67140;SDS011;54058;52.010;5.546;2022-09-27T03:51:35;4.82;;;0.77;;
67140;SDS011;54058;52.010;5.546;2022-09-27T03:54:00;5.22;;;0.80;;
67140;SDS011;54058;52.010;5.546;2022-09-27T03:56:26;12.57;;;1.90;;
67140;SDS011;54058;52.010;5.546;2022-09-27T03:58:51;4.35;;;1.00;;
67140;SDS011;54058;52.010;5.546;2022-09-27T04:01:17;2.95;;;0.73;;
67140;SDS011;54058;52.010;5.546;2022-09-27T04:03:43;5.43;;;0.73;;
67140;SDS011;54058;52.010;5.546;2022-09-27T04:06:10;6.63;;;0.90;;
67140;SDS011;54058;52.010;5.546;2022-09-27T04:08:35;4.80;;;0.70;;
67140;SDS011;54058;52.010;5.546;2022-09-27T04:11:01;4.13;;;0.77;;
67140;SDS011;54058;52.010;5.546;2022-09-27T04:13:27;5.85;;;1.02;;
67140;SDS011;54058;52.010;5.546;2022-09-27T04:15:53;5.38;;;0.80;;
67140;SDS011;54058;52.010;5.546;2022-09-27T04:18:19;8.63;;;0.90;;
67140;SDS011;54058;52.010;5.546;2022-09-27T04:20:44;5.57;;;0.98;;
67140;SDS011;54058;52.010;5.546;2022-09-27T04:23:10;5.88;;;0.93;;
67140;SDS011;54058;52.010;5.546;2022-09-27T04:25:36;6.80;;;0.88;;
67140;SDS011;54058;52.010;5.546;2022-09-27T04:28:03;4.22;;;0.88;;
67140;SDS011;54058;52.010;5.546;2022-09-27T04:30:30;5.47;;;0.80;;
67140;SDS011;54058;52.010;5.546;2022-09-27T04:32:56;5.05;;;0.80;;
67140;SDS011;54058;52.010;5.546;2022-09-27T04:35:21;10.13;;;1.10;;
67140;SDS011;54058;52.010;5.546;2022-09-27T04:38:05;5.93;;;1.10;;
67140;SDS011;54058;52.010;5.546;2022-09-27T04:40:34;8.68;;;1.10;;
67140;SDS011;54058;52.010;5.546;2022-09-27T04:43:00;10.23;;;1.10;;
67140;SDS011;54058;52.010;5.546;2022-09-27T04:45:27;4.78;;;0.80;;
67140;SDS011;54058;52.010;5.546;2022-09-27T04:47:52;9.27;;;0.90;;
67140;SDS011;54058;52.010;5.546;2022-09-27T04:50:18;3.05;;;0.70;;
67140;SDS011;54058;52.010;5.546;2022-09-27T04:52:48;4.05;;;0.70;;
67140;SDS011;54058;52.010;5.546;2022-09-27T04:55:18;5.47;;;0.70;;
67140;SDS011;54058;52.010;5.546;2022-09-27T04:57:47;7.65;;;0.57;;
67140;SDS011;54058;52.010;5.546;2022-09-27T05:00:13;4.63;;;0.75;;
67140;SDS011;54058;52.010;5.546;2022-09-27T05:02:41;1.65;;;0.70;;
67140;SDS011;54058;52.010;5.546;2022-09-27T05:05:08;4.03;;;0.70;;
67140;SDS011;54058;52.010;5.546;2022-09-27T05:07:33;4.18;;;0.80;;
67140;SDS011;54058;52.010;5.546;2022-09-27T05:09:59;2.60;;;0.50;;
67140;SDS011;54058;52.010;5.546;2022-09-27T05:12:25;2.38;;;0.57;;
67140;SDS011;54058;52.010;5.546;2022-09-27T05:14:51;6.63;;;0.63;;
67140;SDS011;54058;52.010;5.546;2022-09-27T05:17:17;4.13;;;0.57;;
67140;SDS011;54058;52.010;5.546;2022-09-27T05:19:44;2.33;;;0.55;;
67140;SDS011;54058;52.010;5.546;2022-09-27T05:22:10;3.60;;;0.50;;
67140;SDS011;54058;52.010;5.546;2022-09-27T05:24:35;2.10;;;0.50;;
67140;SDS011;54058;52.010;5.546;2022-09-27T05:27:02;10.07;;;1.00;;
67140;SDS011;54058;52.010;5.546;2022-09-27T05:29:32;5.75;;;0.70;;
67140;SDS011;54058;52.010;5.546;2022-09-27T05:31:58;2.53;;;0.75;;
67140;SDS011;54058;52.010;5.546;2022-09-27T05:34:23;8.32;;;0.93;;
67140;SDS011;54058;52.010;5.546;2022-09-27T05:36:49;3.15;;;0.57;;
67140;SDS011;54058;52.010;5.546;2022-09-27T05:39:15;3.28;;;0.75;;
67140;SDS011;54058;52.010;5.546;2022-09-27T05:41:44;5.03;;;1.10;;
67140;SDS011;54058;52.010;5.546;2022-09-27T05:44:11;3.72;;;1.10;;
67140;SDS011;54058;52.010;5.546;2022-09-27T05:46:37;4.47;;;0.95;;
67140;SDS011;54058;52.010;5.546;2022-09-27T05:49:04;4.93;;;1.05;;
67140;SDS011;54058;52.010;5.546;2022-09-27T05:51:30;3.33;;;0.82;;
67140;SDS011;54058;52.010;5.546;2022-09-27T05:53:56;2.60;;;0.93;;
67140;SDS011;54058;52.010;5.546;2022-09-27T05:56:21;4.28;;;0.80;;
67140;SDS011;54058;52.010;5.546;2022-09-27T05:58:48;6.13;;;0.80;;
67140;SDS011;54058;52.010;5.546;2022-09-27T06:01:14;7.30;;;0.85;;
67140;SDS011;54058;52.010;5.546;2022-09-27T06:03:41;2.72;;;0.70;;
67140;SDS011;54058;52.010;5.546;2022-09-27T06:06:07;3.50;;;1.02;;
67140;SDS011;54058;52.010;5.546;2022-09-27T06:08:35;3.45;;;0.70;;
67140;SDS011;54058;52.010;5.546;2022-09-27T06:13:28;2.15;;;0.70;;
67140;SDS011;54058;52.010;5.546;2022-09-27T06:15:54;4.47;;;0.70;;
67140;SDS011;54058;52.010;5.546;2022-09-27T06:18:20;2.22;;;0.57;;
67140;SDS011;54058;52.010;5.546;2022-09-27T06:20:46;2.88;;;0.60;;
67140;SDS011;54058;52.010;5.546;2022-09-27T06:23:18;3.13;;;0.68;;
67140;SDS011;54058;52.010;5.546;2022-09-27T06:25:46;1.83;;;0.80;;
67140;SDS011;54058;52.010;5.546;2022-09-27T06:28:12;4.07;;;0.75;;
67140;SDS011;54058;52.010;5.546;2022-09-27T06:30:39;2.90;;;0.60;;
67140;SDS011;54058;52.010;5.546;2022-09-27T06:33:06;3.50;;;1.00;;
67140;SDS011;54058;52.010;5.546;2022-09-27T06:35:35;2.63;;;0.60;;
67140;SDS011;54058;52.010;5.546;2022-09-27T06:38:02;2.95;;;0.68;;
67140;SDS011;54058;52.010;5.546;2022-09-27T06:40:33;3.45;;;0.75;;
67140;SDS011;54058;52.010;5.546;2022-09-27T06:43:02;5.70;;;1.33;;
67140;SDS011;54058;52.010;5.546;2022-09-27T06:45:29;4.32;;;0.88;;
67140;SDS011;54058;52.010;5.546;2022-09-27T06:47:56;3.80;;;0.75;;
67140;SDS011;54058;52.010;5.546;2022-09-27T06:50:22;3.20;;;0.77;;
67140;SDS011;54058;52.010;5.546;2022-09-27T06:52:48;6.93;;;0.83;;
67140;SDS011;54058;52.010;5.546;2022-09-27T06:55:15;4.32;;;0.70;;
67140;SDS011;54058;52.010;5.546;2022-09-27T06:57:41;3.47;;;0.90;;
67140;SDS011;54058;52.010;5.546;2022-09-27T07:00:25;2.10;;;0.70;;
67140;SDS011;54058;52.010;5.546;2022-09-27T07:02:52;3.30;;;0.60;;
67140;SDS011;54058;52.010;5.546;2022-09-27T07:05:19;2.22;;;0.60;;
67140;SDS011;54058;52.010;5.546;2022-09-27T07:07:45;3.33;;;0.70;;
67140;SDS011;54058;52.010;5.546;2022-09-27T07:10:13;5.53;;;0.73;;
67140;SDS011;54058;52.010;5.546;2022-09-27T07:12:42;3.83;;;0.75;;
67140;SDS011;54058;52.010;5.546;2022-09-27T07:15:08;2.63;;;0.67;;
67140;SDS011;54058;52.010;5.546;2022-09-27T07:17:34;3.38;;;0.75;;
67140;SDS011;54058;52.010;5.546;2022-09-27T07:20:00;2.92;;;0.55;;
67140;SDS011;54058;52.010;5.546;2022-09-27T07:22:26;2.25;;;0.50;;
67140;SDS011;54058;52.010;5.546;2022-09-27T07:24:53;1.50;;;0.57;;
67140;SDS011;54058;52.010;5.546;2022-09-27T07:27:19;6.55;;;1.02;;
67140;SDS011;54058;52.010;5.546;2022-09-27T07:29:46;3.08;;;0.43;;
67140;SDS011;54058;52.010;5.546;2022-09-27T07:32:11;3.28;;;1.38;;
67140;SDS011;54058;52.010;5.546;2022-09-27T07:34:37;1.92;;;0.75;;
67140;SDS011;54058;52.010;5.546;2022-09-27T07:37:03;7.03;;;0.85;;
67140;SDS011;54058;52.010;5.546;2022-09-27T07:39:29;4.80;;;0.70;;
67140;SDS011;54058;52.010;5.546;2022-09-27T07:41:56;4.07;;;0.70;;
67140;SDS011;54058;52.010;5.546;2022-09-27T07:44:22;1.63;;;0.60;;
67140;SDS011;54058;52.010;5.546;2022-09-27T07:46:47;2.08;;;0.60;;
67140;SDS011;54058;52.010;5.546;2022-09-27T07:49:13;2.38;;;0.75;;
67140;SDS011;54058;52.010;5.546;2022-09-27T07:51:38;3.60;;;0.80;;
67140;SDS011;54058;52.010;5.546;2022-09-27T07:54:04;3.55;;;0.90;;
67140;SDS011;54058;52.010;5.546;2022-09-27T07:56:30;3.05;;;0.80;;
67140;SDS011;54058;52.010;5.546;2022-09-27T07:58:55;2.08;;;0.75;;
67140;SDS011;54058;52.010;5.546;2022-09-27T08:01:21;1.55;;;0.80;;
67140;SDS011;54058;52.010;5.546;2022-09-27T08:03:47;3.35;;;0.60;;
67140;SDS011;54058;52.010;5.546;2022-09-27T08:06:12;2.78;;;1.00;;
67140;SDS011;54058;52.010;5.546;2022-09-27T08:08:38;4.53;;;0.90;;
67140;SDS011;54058;52.010;5.546;2022-09-27T08:11:11;2.60;;;0.60;;
67140;SDS011;54058;52.010;5.546;2022-09-27T08:13:41;6.03;;;1.30;;
67140;SDS011;54058;52.010;5.546;2022-09-27T08:16:07;2.07;;;0.50;;
67140;SDS011;54058;52.010;5.546;2022-09-27T08:18:33;4.10;;;0.88;;
67140;SDS011;54058;52.010;5.546;2022-09-27T08:20:59;4.97;;;0.95;;
67140;SDS011;54058;52.010;5.546;2022-09-27T08:23:25;7.45;;;1.13;;
67140;SDS011;54058;52.010;5.546;2022-09-27T08:25:54;3.83;;;0.80;;
67140;SDS011;54058;52.010;5.546;2022-09-27T08:28:23;1.58;;;0.80;;
67140;SDS011;54058;52.010;5.546;2022-09-27T08:30:52;2.22;;;0.90;;
67140;SDS011;54058;52.010;5.546;2022-09-27T08:33:18;4.28;;;0.95;;
67140;SDS011;54058;52.010;5.546;2022-09-27T08:35:44;2.00;;;0.80;;
67140;SDS011;54058;52.010;5.546;2022-09-27T08:38:10;6.20;;;1.42;;
67140;SDS011;54058;52.010;5.546;2022-09-27T08:40:41;3.08;;;0.90;;
67140;SDS011;54058;52.010;5.546;2022-09-27T08:43:40;1.98;;;0.77;;
67140;SDS011;54058;52.010;5.546;2022-09-27T08:47:17;3.35;;;0.80;;
67140;SDS011;54058;52.010;5.546;2022-09-27T08:55:03;1.98;;;0.90;;
67140;SDS011;54058;52.010;5.546;2022-09-27T08:57:32;1.60;;;0.80;;
67140;SDS011;54058;52.010;5.546;2022-09-27T09:00:05;5.25;;;0.60;;
67140;SDS011;54058;52.010;5.546;2022-09-27T09:02:34;4.03;;;0.70;;
67140;SDS011;54058;52.010;5.546;2022-09-27T09:05:15;2.55;;;0.77;;
67140;SDS011;54058;52.010;5.546;2022-09-27T09:16:19;6.07;;;0.77;;
67140;SDS011;54058;52.010;5.546;2022-09-27T09:19:04;6.43;;;1.13;;
67140;SDS011;54058;52.010;5.546;2022-09-27T09:24:43;1.38;;;0.50;;
67140;SDS011;54058;52.010;5.546;2022-09-27T09:35:39;2.00;;;0.70;;
67140;SDS011;54058;52.010;5.546;2022-09-27T09:38:13;4.38;;;0.68;;
67140;SDS011;54058;52.010;5.546;2022-09-27T09:40:46;5.55;;;0.60;;
67140;SDS011;54058;52.010;5.546;2022-09-27T09:45:55;6.53;;;0.73;;
67140;SDS011;54058;52.010;5.546;2022-09-27T09:48:37;1.80;;;0.50;;
67140;SDS011;54058;52.010;5.546;2022-09-27T09:51:13;2.53;;;0.77;;
67140;SDS011;54058;52.010;5.546;2022-09-27T09:56:25;1.85;;;0.60;;
67140;SDS011;54058;52.010;5.546;2022-09-27T10:01:36;2.45;;;0.88;;
67140;SDS011;54058;52.010;5.546;2022-09-27T10:04:03;4.45;;;0.45;;
67140;SDS011;54058;52.010;5.546;2022-09-27T10:06:29;3.17;;;0.80;;
67140;SDS011;54058;52.010;5.546;2022-09-27T10:08:55;3.03;;;0.60;;
67140;SDS011;54058;52.010;5.546;2022-09-27T10:11:25;5.47;;;0.70;;
67140;SDS011;54058;52.010;5.546;2022-09-27T10:13:56;0.70;;;0.40;;
67140;SDS011;54058;52.010;5.546;2022-09-27T10:16:22;5.65;;;0.95;;
67140;SDS011;54058;52.010;5.546;2022-09-27T10:18:52;2.20;;;0.50;;
67140;SDS011;54058;52.010;5.546;2022-09-27T10:21:24;2.45;;;0.57;;
67140;SDS011;54058;52.010;5.546;2022-09-27T10:26:29;2.33;;;0.47;;
67140;SDS011;54058;52.010;5.546;2022-09-27T10:28:55;2.13;;;0.57;;
67140;SDS011;54058;52.010;5.546;2022-09-27T10:31:21;4.15;;;0.70;;
67140;SDS011;54058;52.010;5.546;2022-09-27T10:33:52;2.40;;;0.77;;
67140;SDS011;54058;52.010;5.546;2022-09-27T10:36:28;0.95;;;0.50;;
67140;SDS011;54058;52.010;5.546;2022-09-27T10:38:56;1.70;;;0.70;;
67140;SDS011;54058;52.010;5.546;2022-09-27T10:41:35;8.40;;;0.95;;
67140;SDS011;54058;52.010;5.546;2022-09-27T10:44:17;2.47;;;0.40;;
67140;SDS011;54058;52.010;5.546;2022-09-27T10:46:49;4.40;;;0.57;;
67140;SDS011;54058;52.010;5.546;2022-09-27T10:49:20;14.45;;;0.93;;
67140;SDS011;54058;52.010;5.546;2022-09-27T10:51:56;2.70;;;0.60;;
67140;SDS011;54058;52.010;5.546;2022-09-27T10:54:25;0.60;;;0.40;;
67140;SDS011;54058;52.010;5.546;2022-09-27T10:56:57;1.95;;;0.50;;
67140;SDS011;54058;52.010;5.546;2022-09-27T10:59:23;2.25;;;0.50;;
67140;SDS011;54058;52.010;5.546;2022-09-27T11:01:49;3.17;;;0.93;;
67140;SDS011;54058;52.010;5.546;2022-09-27T11:06:45;1.50;;;0.43;;
67140;SDS011;54058;52.010;5.546;2022-09-27T11:09:15;0.98;;;0.52;;
67140;SDS011;54058;52.010;5.546;2022-09-27T11:11:47;2.57;;;0.50;;
67140;SDS011;54058;52.010;5.546;2022-09-27T11:14:20;3.30;;;0.40;;
67140;SDS011;54058;52.010;5.546;2022-09-27T11:30:16;0.82;;;0.38;;
67140;SDS011;54058;52.010;5.546;2022-09-27T11:32:52;1.63;;;0.52;;
67140;SDS011;54058;52.010;5.546;2022-09-27T11:38:29;2.67;;;0.68;;
67140;SDS011;54058;52.010;5.546;2022-09-27T11:41:02;2.35;;;0.30;;
67140;SDS011;54058;52.010;5.546;2022-09-27T11:46:14;2.05;;;0.50;;
67140;SDS011;54058;52.010;5.546;2022-09-27T11:49:08;3.55;;;1.33;;
67140;SDS011;54058;52.010;5.546;2022-09-27T11:57:41;0.90;;;0.40;;
67140;SDS011;54058;52.010;5.546;2022-09-27T12:00:23;2.47;;;0.65;;
67140;SDS011;54058;52.010;5.546;2022-09-27T12:08:25;1.85;;;0.40;;
67140;SDS011;54058;52.010;5.546;2022-09-27T12:11:08;2.08;;;0.50;;
67140;SDS011;54058;52.010;5.546;2022-09-27T12:13:44;1.63;;;0.60;;
67140;SDS011;54058;52.010;5.546;2022-09-27T12:16:14;1.25;;;0.40;;
67140;SDS011;54058;52.010;5.546;2022-09-27T12:18:41;1.75;;;0.40;;
67140;SDS011;54058;52.010;5.546;2022-09-27T12:21:09;1.25;;;0.55;;
67140;SDS011;54058;52.010;5.546;2022-09-27T12:26:25;1.98;;;0.60;;
67140;SDS011;54058;52.010;5.546;2022-09-27T12:28:57;1.25;;;0.45;;
67140;SDS011;54058;52.010;5.546;2022-09-27T12:34:21;9.57;;;0.60;;
67140;SDS011;54058;52.010;5.546;2022-09-27T12:37:07;0.50;;;0.40;;
67140;SDS011;54058;52.010;5.546;2022-09-27T12:39:40;3.90;;;0.40;;
67140;SDS011;54058;52.010;5.546;2022-09-27T12:42:23;1.10;;;0.30;;
67140;SDS011;54058;52.010;5.546;2022-09-27T12:45:10;1.50;;;0.60;;
67140;SDS011;54058;52.010;5.546;2022-09-27T12:50:13;0.75;;;0.50;;
67140;SDS011;54058;52.010;5.546;2022-09-27T12:52:49;1.83;;;0.60;;
67140;SDS011;54058;52.010;5.546;2022-09-27T13:01:18;2.50;;;0.80;;
67140;SDS011;54058;52.010;5.546;2022-09-27T13:12:34;1.50;;;0.50;;
67140;SDS011;54058;52.010;5.546;2022-09-27T13:18:05;2.08;;;0.57;;
67140;SDS011;54058;52.010;5.546;2022-09-27T13:20:51;2.13;;;0.40;;
67140;SDS011;54058;52.010;5.546;2022-09-27T13:25:55;1.77;;;0.40;;
67140;SDS011;54058;52.010;5.546;2022-09-27T13:36:15;1.98;;;0.52;;
67140;SDS011;54058;52.010;5.546;2022-09-27T13:39:00;1.08;;;0.40;;
67140;SDS011;54058;52.010;5.546;2022-09-27T13:49:44;1.90;;;0.40;;
67140;SDS011;54058;52.010;5.546;2022-09-27T13:55:00;0.68;;;0.40;;
67140;SDS011;54058;52.010;5.546;2022-09-27T14:00:21;3.42;;;1.00;;
67140;SDS011;54058;52.010;5.546;2022-09-27T14:02:59;2.22;;;0.60;;
67140;SDS011;54058;52.010;5.546;2022-09-27T14:05:38;1.08;;;0.50;;
67140;SDS011;54058;52.010;5.546;2022-09-27T14:08:06;1.60;;;0.43;;
67140;SDS011;54058;52.010;5.546;2022-09-27T14:10:48;1.50;;;0.43;;
67140;SDS011;54058;52.010;5.546;2022-09-27T14:13:16;0.63;;;0.33;;
67140;SDS011;54058;52.010;5.546;2022-09-27T14:15:44;4.25;;;0.50;;
67140;SDS011;54058;52.010;5.546;2022-09-27T14:18:11;0.77;;;0.35;;
67140;SDS011;54058;52.010;5.546;2022-09-27T14:20:45;1.02;;;0.35;;
67140;SDS011;54058;52.010;5.546;2022-09-27T14:23:19;1.40;;;0.32;;
67140;SDS011;54058;52.010;5.546;2022-09-27T14:25:46;0.88;;;0.40;;
67140;SDS011;54058;52.010;5.546;2022-09-27T14:28:18;0.57;;;0.47;;
67140;SDS011;54058;52.010;5.546;2022-09-27T14:30:45;1.30;;;0.43;;
67140;SDS011;54058;52.010;5.546;2022-09-27T14:33:31;2.67;;;0.50;;
67140;SDS011;54058;52.010;5.546;2022-09-27T14:35:58;1.33;;;0.40;;
67140;SDS011;54058;52.010;5.546;2022-09-27T14:38:43;1.67;;;0.70;;
67140;SDS011;54058;52.010;5.546;2022-09-27T14:41:09;2.60;;;0.70;;
67140;SDS011;54058;52.010;5.546;2022-09-27T14:43:35;2.35;;;0.60;;
67140;SDS011;54058;52.010;5.546;2022-09-27T14:46:20;2.13;;;0.60;;
67140;SDS011;54058;52.010;5.546;2022-09-27T14:48:52;2.97;;;0.50;;
67140;SDS011;54058;52.010;5.546;2022-09-27T14:51:20;4.63;;;0.63;;
67140;SDS011;54058;52.010;5.546;2022-09-27T14:53:55;2.67;;;0.60;;
67140;SDS011;54058;52.010;5.546;2022-09-27T14:56:29;1.45;;;0.80;;
67140;SDS011;54058;52.010;5.546;2022-09-27T14:59:09;2.70;;;0.73;;
67140;SDS011;54058;52.010;5.546;2022-09-27T15:01:42;1.02;;;0.50;;
67140;SDS011;54058;52.010;5.546;2022-09-27T15:04:14;2.40;;;0.80;;
67140;SDS011;54058;52.010;5.546;2022-09-27T15:06:40;1.55;;;0.60;;
67140;SDS011;54058;52.010;5.546;2022-09-27T15:09:09;1.60;;;0.80;;
67140;SDS011;54058;52.010;5.546;2022-09-27T15:11:41;2.85;;;0.60;;
67140;SDS011;54058;52.010;5.546;2022-09-27T15:14:12;0.95;;;0.68;;
67140;SDS011;54058;52.010;5.546;2022-09-27T15:16:41;1.15;;;0.90;;
67140;SDS011;54058;52.010;5.546;2022-09-27T15:19:15;6.82;;;1.50;;
67140;SDS011;54058;52.010;5.546;2022-09-27T15:21:53;5.00;;;1.40;;
67140;SDS011;54058;52.010;5.546;2022-09-27T15:24:42;4.72;;;1.88;;
67140;SDS011;54058;52.010;5.546;2022-09-27T15:27:13;7.57;;;2.20;;
67140;SDS011;54058;52.010;5.546;2022-09-27T15:29:50;6.70;;;3.17;;
67140;SDS011;54058;52.010;5.546;2022-09-27T15:32:18;7.30;;;3.47;;
67140;SDS011;54058;52.010;5.546;2022-09-27T15:34:48;6.65;;;2.80;;
67140;SDS011;54058;52.010;5.546;2022-09-27T15:37:33;10.60;;;3.63;;
67140;SDS011;54058;52.010;5.546;2022-09-27T15:42:53;5.97;;;2.05;;
67140;SDS011;54058;52.010;5.546;2022-09-27T15:45:41;6.38;;;3.17;;
67140;SDS011;54058;52.010;5.546;2022-09-27T15:48:17;13.48;;;2.85;;
67140;SDS011;54058;52.010;5.546;2022-09-27T15:50:44;6.90;;;2.58;;
67140;SDS011;54058;52.010;5.546;2022-09-27T15:53:38;3.15;;;2.38;;
67140;SDS011;54058;52.010;5.546;2022-09-27T15:55:58;5.82;;;2.00;;
67140;SDS011;54058;52.010;5.546;2022-09-27T15:58:24;3.90;;;2.00;;
67140;SDS011;54058;52.010;5.546;2022-09-27T16:00:54;10.90;;;1.67;;
67140;SDS011;54058;52.010;5.546;2022-09-27T16:03:22;4.35;;;2.03;;
67140;SDS011;54058;52.010;5.546;2022-09-27T16:08:14;2.57;;;1.30;;
67140;SDS011;54058;52.010;5.546;2022-09-27T16:10:41;3.95;;;1.30;;
67140;SDS011;54058;52.010;5.546;2022-09-27T16:13:15;5.63;;;1.60;;
67140;SDS011;54058;52.010;5.546;2022-09-27T16:15:41;6.10;;;1.73;;
67140;SDS011;54058;52.010;5.546;2022-09-27T16:18:08;5.10;;;1.80;;
67140;SDS011;54058;52.010;5.546;2022-09-27T16:20:34;2.80;;;1.88;;
67140;SDS011;54058;52.010;5.546;2022-09-27T16:23:00;4.32;;;1.40;;
67140;SDS011;54058;52.010;5.546;2022-09-27T16:25:25;5.25;;;1.73;;
67140;SDS011;54058;52.010;5.546;2022-09-27T16:27:52;3.03;;;1.70;;
67140;SDS011;54058;52.010;5.546;2022-09-27T16:30:21;8.55;;;5.13;;
67140;SDS011;54058;52.010;5.546;2022-09-27T16:32:47;14.65;;;4.70;;
67140;SDS011;54058;52.010;5.546;2022-09-27T16:35:14;5.03;;;2.50;;
67140;SDS011;54058;52.010;5.546;2022-09-27T16:37:41;5.43;;;1.65;;
67140;SDS011;54058;52.010;5.546;2022-09-27T16:40:08;2.92;;;1.23;;
67140;SDS011;54058;52.010;5.546;2022-09-27T16:47:28;3.63;;;1.30;;
67140;SDS011;54058;52.010;5.546;2022-09-27T16:49:55;5.38;;;1.67;;
67140;SDS011;54058;52.010;5.546;2022-09-27T16:52:39;2.15;;;0.70;;
67140;SDS011;54058;52.010;5.546;2022-09-27T16:55:06;4.32;;;0.88;;
67140;SDS011;54058;52.010;5.546;2022-09-27T16:57:32;4.53;;;1.02;;
67140;SDS011;54058;52.010;5.546;2022-09-27T16:59:59;4.22;;;1.23;;
67140;SDS011;54058;52.010;5.546;2022-09-27T17:02:25;1.80;;;1.20;;
67140;SDS011;54058;52.010;5.546;2022-09-27T17:04:51;1.52;;;0.82;;
67140;SDS011;54058;52.010;5.546;2022-09-27T17:07:20;1.70;;;1.15;;
67140;SDS011;54058;52.010;5.546;2022-09-27T17:09:45;4.07;;;0.90;;
67140;SDS011;54058;52.010;5.546;2022-09-27T17:12:12;3.08;;;1.30;;
67140;SDS011;54058;52.010;5.546;2022-09-27T17:14:38;2.80;;;1.20;;
67140;SDS011;54058;52.010;5.546;2022-09-27T17:17:04;2.17;;;1.15;;
67140;SDS011;54058;52.010;5.546;2022-09-27T17:19:30;4.15;;;1.23;;
67140;SDS011;54058;52.010;5.546;2022-09-27T17:21:56;4.65;;;1.48;;
67140;SDS011;54058;52.010;5.546;2022-09-27T17:24:22;2.83;;;1.35;;
67140;SDS011;54058;52.010;5.546;2022-09-27T17:26:48;4.13;;;1.20;;
67140;SDS011;54058;52.010;5.546;2022-09-27T17:29:14;4.03;;;1.58;;
67140;SDS011;54058;52.010;5.546;2022-09-27T17:31:40;2.97;;;1.23;;
67140;SDS011;54058;52.010;5.546;2022-09-27T17:34:07;5.77;;;1.60;;
67140;SDS011;54058;52.010;5.546;2022-09-27T17:36:36;2.55;;;1.20;;
67140;SDS011;54058;52.010;5.546;2022-09-27T17:39:03;3.30;;;1.40;;
67140;SDS011;54058;52.010;5.546;2022-09-27T17:41:30;5.18;;;1.45;;
67140;SDS011;54058;52.010;5.546;2022-09-27T17:43:58;3.10;;;1.45;;
67140;SDS011;54058;52.010;5.546;2022-09-27T17:46:26;2.47;;;1.52;;
67140;SDS011;54058;52.010;5.546;2022-09-27T17:48:53;7.88;;;1.25;;
67140;SDS011;54058;52.010;5.546;2022-09-27T17:51:38;4.80;;;1.45;;
67140;SDS011;54058;52.010;5.546;2022-09-27T17:54:06;4.03;;;1.30;;
67140;SDS011;54058;52.010;5.546;2022-09-27T17:56:36;5.18;;;1.35;;
67140;SDS011;54058;52.010;5.546;2022-09-27T17:59:03;2.35;;;1.25;;
67140;SDS011;54058;52.010;5.546;2022-09-27T18:01:29;1.75;;;1.13;;